Terminal Aerodrome Forecast
Issued by NWS

Home | Current Version | Previous Version | Text Only | Print | Product List | Glossary On
Versions: 1 2 3 4 5 6 7 8 9 10 11 12 13 14 15 16 17
551
FTUS43 KJKL 281726
TAFSJS
TAF
KSJS 281726Z 2818/2918 VRB03KT P6SM VCTS BKN020CB BKN150
      TEMPO 2818/2822 1SM SHRA BR SCT008 OVC015
     FM282300 33003KT P6SM VCSH BKN010
     FM290300 33003KT P6SM BKN010
     FM291000 33003KT 2SM BR OVC006
     FM291600 VRB03KT P6SM SCT015=

USA.gov is the U.S. government's official web portal to all federal, state and local government web resources and services.